sensor_id;sensor_type;location;lat;lon;timestamp;temperature;humidity
59041;DHT22;44825;53.200;6.448;2022-08-19T00:01:25;17.30;99.90
59041;DHT22;44825;53.200;6.448;2022-08-19T00:03:53;17.30;99.90
59041;DHT22;44825;53.200;6.448;2022-08-19T00:06:20;17.30;99.90
59041;DHT22;44825;53.200;6.448;2022-08-19T00:08:48;17.30;99.90
59041;DHT22;44825;53.200;6.448;2022-08-19T00:11:18;17.30;99.90
59041;DHT22;44825;53.200;6.448;2022-08-19T00:13:46;17.30;99.90
59041;DHT22;44825;53.200;6.448;2022-08-19T00:16:16;17.30;99.90
59041;DHT22;44825;53.200;6.448;2022-08-19T00:18:44;17.30;99.90
59041;DHT22;44825;53.200;6.448;2022-08-19T00:21:11;17.30;99.90
59041;DHT22;44825;53.200;6.448;2022-08-19T00:23:38;17.30;99.90
59041;DHT22;44825;53.200;6.448;2022-08-19T00:26:06;17.30;99.90
59041;DHT22;44825;53.200;6.448;2022-08-19T00:28:35;17.20;99.90
59041;DHT22;44825;53.200;6.448;2022-08-19T00:31:04;17.20;99.90
59041;DHT22;44825;53.200;6.448;2022-08-19T00:33:32;17.10;99.90
59041;DHT22;44825;53.200;6.448;2022-08-19T00:36:00;17.10;99.90
59041;DHT22;44825;53.200;6.448;2022-08-19T00:38:28;17.10;99.90
59041;DHT22;44825;53.200;6.448;2022-08-19T00:40:55;17.10;99.90
59041;DHT22;44825;53.200;6.448;2022-08-19T00:43:24;17.00;99.90
59041;DHT22;44825;53.200;6.448;2022-08-19T00:45:54;17.00;99.90
59041;DHT22;44825;53.200;6.448;2022-08-19T00:48:21;17.00;99.90
59041;DHT22;44825;53.200;6.448;2022-08-19T00:50:50;17.00;99.90
59041;DHT22;44825;53.200;6.448;2022-08-19T00:53:22;16.90;99.90
59041;DHT22;44825;53.200;6.448;2022-08-19T00:55:55;16.90;99.90
59041;DHT22;44825;53.200;6.448;2022-08-19T00:58:28;16.80;99.90
59041;DHT22;44825;53.200;6.448;2022-08-19T01:00:57;16.80;99.90
59041;DHT22;44825;53.200;6.448;2022-08-19T01:03:24;16.80;99.90
59041;DHT22;44825;53.200;6.448;2022-08-19T01:05:54;16.80;99.90
59041;DHT22;44825;53.200;6.448;2022-08-19T01:08:22;16.70;99.90
59041;DHT22;44825;53.200;6.448;2022-08-19T01:10:55;16.70;99.90
59041;DHT22;44825;53.200;6.448;2022-08-19T01:13:25;16.70;99.90
59041;DHT22;44825;53.200;6.448;2022-08-19T01:15:58;16.70;99.90
59041;DHT22;44825;53.200;6.448;2022-08-19T01:18:27;16.70;99.90
59041;DHT22;44825;53.200;6.448;2022-08-19T01:20:59;16.70;99.90
59041;DHT22;44825;53.200;6.448;2022-08-19T01:23:29;16.80;99.90
59041;DHT22;44825;53.200;6.448;2022-08-19T01:26:11;16.80;99.90
59041;DHT22;44825;53.200;6.448;2022-08-19T01:28:40;16.80;99.90
59041;DHT22;44825;53.200;6.448;2022-08-19T01:31:10;16.80;99.90
59041;DHT22;44825;53.200;6.448;2022-08-19T01:33:39;16.80;99.90
59041;DHT22;44825;53.200;6.448;2022-08-19T01:36:08;16.80;99.90
59041;DHT22;44825;53.200;6.448;2022-08-19T01:38:40;16.70;99.90
59041;DHT22;44825;53.200;6.448;2022-08-19T01:41:09;16.70;99.90
59041;DHT22;44825;53.200;6.448;2022-08-19T01:43:37;16.70;99.90
59041;DHT22;44825;53.200;6.448;2022-08-19T01:46:04;16.60;99.90
59041;DHT22;44825;53.200;6.448;2022-08-19T01:48:37;16.70;99.90
59041;DHT22;44825;53.200;6.448;2022-08-19T01:51:05;16.60;99.90
59041;DHT22;44825;53.200;6.448;2022-08-19T01:53:33;16.60;99.90
59041;DHT22;44825;53.200;6.448;2022-08-19T01:56:03;16.60;99.90
59041;DHT22;44825;53.200;6.448;2022-08-19T01:58:34;16.60;99.90
59041;DHT22;44825;53.200;6.448;2022-08-19T02:01:03;16.70;99.90
59041;DHT22;44825;53.200;6.448;2022-08-19T02:03:31;16.70;99.90
59041;DHT22;44825;53.200;6.448;2022-08-19T02:05:59;16.70;99.90
59041;DHT22;44825;53.200;6.448;2022-08-19T02:08:29;16.80;99.90
59041;DHT22;44825;53.200;6.448;2022-08-19T02:10:57;16.80;99.90
59041;DHT22;44825;53.200;6.448;2022-08-19T02:13:27;16.80;99.90
59041;DHT22;44825;53.200;6.448;2022-08-19T02:15:55;16.90;99.90
59041;DHT22;44825;53.200;6.448;2022-08-19T02:18:22;16.90;99.90
59041;DHT22;44825;53.200;6.448;2022-08-19T02:20:49;16.90;99.90
59041;DHT22;44825;53.200;6.448;2022-08-19T02:23:16;16.90;99.90
59041;DHT22;44825;53.200;6.448;2022-08-19T02:25:46;17.00;99.90
59041;DHT22;44825;53.200;6.448;2022-08-19T02:28:14;17.00;99.90
59041;DHT22;44825;53.200;6.448;2022-08-19T02:30:42;17.00;99.90
59041;DHT22;44825;53.200;6.448;2022-08-19T02:33:10;17.00;99.90
59041;DHT22;44825;53.200;6.448;2022-08-19T02:35:41;17.00;99.90
59041;DHT22;44825;53.200;6.448;2022-08-19T02:38:08;17.00;99.90
59041;DHT22;44825;53.200;6.448;2022-08-19T02:40:56;17.00;99.90
59041;DHT22;44825;53.200;6.448;2022-08-19T02:43:25;17.00;99.90
59041;DHT22;44825;53.200;6.448;2022-08-19T02:45:55;16.90;99.90
59041;DHT22;44825;53.200;6.448;2022-08-19T02:48:24;16.90;99.90
59041;DHT22;44825;53.200;6.448;2022-08-19T02:50:52;17.00;99.90
59041;DHT22;44825;53.200;6.448;2022-08-19T02:53:22;17.00;99.90
59041;DHT22;44825;53.200;6.448;2022-08-19T02:55:50;16.90;99.90
59041;DHT22;44825;53.200;6.448;2022-08-19T02:58:20;16.80;99.90
59041;DHT22;44825;53.200;6.448;2022-08-19T03:00:50;16.70;99.90
59041;DHT22;44825;53.200;6.448;2022-08-19T03:03:19;16.60;99.90
59041;DHT22;44825;53.200;6.448;2022-08-19T03:05:47;16.60;99.90
59041;DHT22;44825;53.200;6.448;2022-08-19T03:08:14;16.60;99.90
59041;DHT22;44825;53.200;6.448;2022-08-19T03:10:43;16.70;99.90
59041;DHT22;44825;53.200;6.448;2022-08-19T03:13:12;16.70;99.90
59041;DHT22;44825;53.200;6.448;2022-08-19T03:15:41;16.70;99.90
59041;DHT22;44825;53.200;6.448;2022-08-19T03:18:09;16.70;99.90
59041;DHT22;44825;53.200;6.448;2022-08-19T03:20:43;16.70;99.90
59041;DHT22;44825;53.200;6.448;2022-08-19T03:23:10;16.70;99.90
59041;DHT22;44825;53.200;6.448;2022-08-19T03:25:39;16.60;99.90
59041;DHT22;44825;53.200;6.448;2022-08-19T03:28:08;16.60;99.90
59041;DHT22;44825;53.200;6.448;2022-08-19T03:30:35;16.70;99.90
59041;DHT22;44825;53.200;6.448;2022-08-19T03:33:02;16.70;99.90
59041;DHT22;44825;53.200;6.448;2022-08-19T03:35:30;16.70;99.90
59041;DHT22;44825;53.200;6.448;2022-08-19T03:37:59;16.70;99.90
59041;DHT22;44825;53.200;6.448;2022-08-19T03:40:26;16.70;99.90
59041;DHT22;44825;53.200;6.448;2022-08-19T03:42:55;16.70;99.90
59041;DHT22;44825;53.200;6.448;2022-08-19T03:45:23;16.70;99.90
59041;DHT22;44825;53.200;6.448;2022-08-19T03:47:50;16.70;99.90
59041;DHT22;44825;53.200;6.448;2022-08-19T03:50:18;16.60;99.90
59041;DHT22;44825;53.200;6.448;2022-08-19T03:52:48;16.70;99.90
59041;DHT22;44825;53.200;6.448;2022-08-19T03:55:18;16.70;99.90
59041;DHT22;44825;53.200;6.448;2022-08-19T03:57:45;16.70;99.90
59041;DHT22;44825;53.200;6.448;2022-08-19T04:00:15;16.70;99.90
59041;DHT22;44825;53.200;6.448;2022-08-19T04:02:43;16.70;99.90
59041;DHT22;44825;53.200;6.448;2022-08-19T04:05:10;16.70;99.90
59041;DHT22;44825;53.200;6.448;2022-08-19T04:07:40;16.70;99.90
59041;DHT22;44825;53.200;6.448;2022-08-19T04:10:08;16.70;99.90
59041;DHT22;44825;53.200;6.448;2022-08-19T04:12:36;16.70;99.90
59041;DHT22;44825;53.200;6.448;2022-08-19T04:15:06;16.70;99.90
59041;DHT22;44825;53.200;6.448;2022-08-19T04:17:34;16.80;99.90
59041;DHT22;44825;53.200;6.448;2022-08-19T04:20:01;16.80;99.90
59041;DHT22;44825;53.200;6.448;2022-08-19T04:22:28;16.70;99.90
59041;DHT22;44825;53.200;6.448;2022-08-19T04:24:56;16.70;99.90
59041;DHT22;44825;53.200;6.448;2022-08-19T04:27:23;16.60;99.90
59041;DHT22;44825;53.200;6.448;2022-08-19T04:29:52;16.60;99.90
59041;DHT22;44825;53.200;6.448;2022-08-19T04:32:20;16.60;99.90
59041;DHT22;44825;53.200;6.448;2022-08-19T04:34:48;16.50;99.90
59041;DHT22;44825;53.200;6.448;2022-08-19T04:37:15;16.50;99.90
59041;DHT22;44825;53.200;6.448;2022-08-19T04:39:43;16.40;99.90
59041;DHT22;44825;53.200;6.448;2022-08-19T04:42:28;16.40;99.90
59041;DHT22;44825;53.200;6.448;2022-08-19T04:45:12;16.40;99.90
59041;DHT22;44825;53.200;6.448;2022-08-19T04:47:42;16.30;99.90
59041;DHT22;44825;53.200;6.448;2022-08-19T04:50:10;16.30;99.90
59041;DHT22;44825;53.200;6.448;2022-08-19T04:52:37;16.30;99.90
59041;DHT22;44825;53.200;6.448;2022-08-19T04:55:09;16.30;99.90
59041;DHT22;44825;53.200;6.448;2022-08-19T04:57:37;16.30;99.90
59041;DHT22;44825;53.200;6.448;2022-08-19T05:00:09;16.20;99.90
59041;DHT22;44825;53.200;6.448;2022-08-19T05:02:36;16.20;99.90
59041;DHT22;44825;53.200;6.448;2022-08-19T05:05:04;16.20;99.90
59041;DHT22;44825;53.200;6.448;2022-08-19T05:07:32;16.20;99.90
59041;DHT22;44825;53.200;6.448;2022-08-19T05:10:00;16.30;99.90
59041;DHT22;44825;53.200;6.448;2022-08-19T05:12:27;16.30;99.90
59041;DHT22;44825;53.200;6.448;2022-08-19T05:14:55;16.30;99.90
59041;DHT22;44825;53.200;6.448;2022-08-19T05:17:26;16.40;99.90
59041;DHT22;44825;53.200;6.448;2022-08-19T05:19:53;16.50;99.90
59041;DHT22;44825;53.200;6.448;2022-08-19T05:22:38;16.60;99.90
59041;DHT22;44825;53.200;6.448;2022-08-19T05:25:08;16.70;99.90
59041;DHT22;44825;53.200;6.448;2022-08-19T05:27:36;16.90;99.90
59041;DHT22;44825;53.200;6.448;2022-08-19T05:30:04;17.00;99.90
59041;DHT22;44825;53.200;6.448;2022-08-19T05:32:33;17.20;99.90
59041;DHT22;44825;53.200;6.448;2022-08-19T05:35:00;17.30;99.90
59041;DHT22;44825;53.200;6.448;2022-08-19T05:37:28;17.40;99.90
59041;DHT22;44825;53.200;6.448;2022-08-19T05:39:55;17.60;99.90
59041;DHT22;44825;53.200;6.448;2022-08-19T05:42:23;17.70;99.90
59041;DHT22;44825;53.200;6.448;2022-08-19T05:44:51;17.80;99.90
59041;DHT22;44825;53.200;6.448;2022-08-19T05:47:19;17.90;99.90
59041;DHT22;44825;53.200;6.448;2022-08-19T05:49:48;18.00;99.90
59041;DHT22;44825;53.200;6.448;2022-08-19T05:52:16;18.10;99.90
59041;DHT22;44825;53.200;6.448;2022-08-19T05:54:44;18.20;99.90
59041;DHT22;44825;53.200;6.448;2022-08-19T05:57:14;18.30;99.90
59041;DHT22;44825;53.200;6.448;2022-08-19T05:59:41;18.30;99.90
59041;DHT22;44825;53.200;6.448;2022-08-19T06:02:10;18.50;99.90
59041;DHT22;44825;53.200;6.448;2022-08-19T06:04:37;18.50;99.90
59041;DHT22;44825;53.200;6.448;2022-08-19T06:07:06;18.60;99.90
59041;DHT22;44825;53.200;6.448;2022-08-19T06:09:33;18.70;99.90
59041;DHT22;44825;53.200;6.448;2022-08-19T06:12:01;18.70;99.90
59041;DHT22;44825;53.200;6.448;2022-08-19T06:14:32;18.80;99.90
59041;DHT22;44825;53.200;6.448;2022-08-19T06:17:01;18.90;99.90
59041;DHT22;44825;53.200;6.448;2022-08-19T06:19:30;19.00;99.90
59041;DHT22;44825;53.200;6.448;2022-08-19T06:21:59;19.00;99.90
59041;DHT22;44825;53.200;6.448;2022-08-19T06:24:29;19.10;99.90
59041;DHT22;44825;53.200;6.448;2022-08-19T06:26:58;19.20;99.90
59041;DHT22;44825;53.200;6.448;2022-08-19T06:29:27;19.20;99.90
59041;DHT22;44825;53.200;6.448;2022-08-19T06:31:57;19.20;99.90
59041;DHT22;44825;53.200;6.448;2022-08-19T06:34:26;19.30;99.90
59041;DHT22;44825;53.200;6.448;2022-08-19T06:36:56;19.30;99.90
59041;DHT22;44825;53.200;6.448;2022-08-19T06:39:30;19.30;99.90
59041;DHT22;44825;53.200;6.448;2022-08-19T06:42:00;19.40;99.90
59041;DHT22;44825;53.200;6.448;2022-08-19T06:44:29;19.40;99.90
59041;DHT22;44825;53.200;6.448;2022-08-19T06:47:02;19.50;99.90
59041;DHT22;44825;53.200;6.448;2022-08-19T06:49:30;19.40;99.90
59041;DHT22;44825;53.200;6.448;2022-08-19T06:51:58;19.50;99.90
59041;DHT22;44825;53.200;6.448;2022-08-19T06:54:27;19.50;99.90
59041;DHT22;44825;53.200;6.448;2022-08-19T06:56:55;19.60;99.90
59041;DHT22;44825;53.200;6.448;2022-08-19T06:59:24;19.60;99.90
59041;DHT22;44825;53.200;6.448;2022-08-19T07:01:55;19.70;99.90
59041;DHT22;44825;53.200;6.448;2022-08-19T07:04:24;19.70;99.90
59041;DHT22;44825;53.200;6.448;2022-08-19T07:06:57;19.80;99.90
59041;DHT22;44825;53.200;6.448;2022-08-19T07:09:25;19.80;99.90
59041;DHT22;44825;53.200;6.448;2022-08-19T07:11:54;19.80;99.90
59041;DHT22;44825;53.200;6.448;2022-08-19T07:14:24;19.90;99.90
59041;DHT22;44825;53.200;6.448;2022-08-19T07:16:53;19.90;99.90
59041;DHT22;44825;53.200;6.448;2022-08-19T07:19:22;20.00;99.90
59041;DHT22;44825;53.200;6.448;2022-08-19T07:21:52;20.00;99.90
59041;DHT22;44825;53.200;6.448;2022-08-19T07:24:20;20.00;99.90
59041;DHT22;44825;53.200;6.448;2022-08-19T07:26:50;20.10;99.90
59041;DHT22;44825;53.200;6.448;2022-08-19T07:29:20;20.20;99.90
59041;DHT22;44825;53.200;6.448;2022-08-19T07:31:49;20.10;99.90
59041;DHT22;44825;53.200;6.448;2022-08-19T07:34:17;20.20;99.90
59041;DHT22;44825;53.200;6.448;2022-08-19T07:36:45;20.20;99.90
59041;DHT22;44825;53.200;6.448;2022-08-19T07:39:18;20.40;99.90
59041;DHT22;44825;53.200;6.448;2022-08-19T07:41:47;20.40;99.90
59041;DHT22;44825;53.200;6.448;2022-08-19T07:44:15;20.50;99.90
59041;DHT22;44825;53.200;6.448;2022-08-19T07:46:47;20.50;99.90
59041;DHT22;44825;53.200;6.448;2022-08-19T07:49:16;20.60;99.90
59041;DHT22;44825;53.200;6.448;2022-08-19T07:51:46;20.60;99.90
59041;DHT22;44825;53.200;6.448;2022-08-19T07:54:14;20.60;99.90
59041;DHT22;44825;53.200;6.448;2022-08-19T07:56:41;20.70;99.90
59041;DHT22;44825;53.200;6.448;2022-08-19T07:59:08;20.70;99.90
59041;DHT22;44825;53.200;6.448;2022-08-19T08:01:36;20.80;99.90
59041;DHT22;44825;53.200;6.448;2022-08-19T08:04:07;20.80;99.90
59041;DHT22;44825;53.200;6.448;2022-08-19T08:06:52;20.90;99.90
59041;DHT22;44825;53.200;6.448;2022-08-19T08:09:39;21.00;99.90
59041;DHT22;44825;53.200;6.448;2022-08-19T08:12:10;21.00;99.90
59041;DHT22;44825;53.200;6.448;2022-08-19T08:14:40;21.10;99.90
59041;DHT22;44825;53.200;6.448;2022-08-19T08:17:09;21.20;99.90
59041;DHT22;44825;53.200;6.448;2022-08-19T08:19:38;21.20;99.90
59041;DHT22;44825;53.200;6.448;2022-08-19T08:22:08;21.30;99.90
59041;DHT22;44825;53.200;6.448;2022-08-19T08:24:55;21.40;99.90
59041;DHT22;44825;53.200;6.448;2022-08-19T08:27:24;21.50;99.90
59041;DHT22;44825;53.200;6.448;2022-08-19T08:29:51;21.50;99.90
59041;DHT22;44825;53.200;6.448;2022-08-19T08:32:19;21.60;99.90
59041;DHT22;44825;53.200;6.448;2022-08-19T08:34:47;21.60;99.90
59041;DHT22;44825;53.200;6.448;2022-08-19T08:37:15;21.70;99.90
59041;DHT22;44825;53.200;6.448;2022-08-19T08:39:42;21.70;99.90
59041;DHT22;44825;53.200;6.448;2022-08-19T08:42:14;21.90;99.90
59041;DHT22;44825;53.200;6.448;2022-08-19T08:44:55;21.90;99.90
59041;DHT22;44825;53.200;6.448;2022-08-19T08:47:25;22.10;99.90
59041;DHT22;44825;53.200;6.448;2022-08-19T08:49:58;22.20;99.90
59041;DHT22;44825;53.200;6.448;2022-08-19T08:52:28;22.30;99.90
59041;DHT22;44825;53.200;6.448;2022-08-19T08:54:58;22.40;99.90
59041;DHT22;44825;53.200;6.448;2022-08-19T08:57:30;22.40;99.90
59041;DHT22;44825;53.200;6.448;2022-08-19T09:00:00;22.50;99.90
59041;DHT22;44825;53.200;6.448;2022-08-19T09:02:30;22.60;99.90
59041;DHT22;44825;53.200;6.448;2022-08-19T09:04:59;22.60;99.90
59041;DHT22;44825;53.200;6.448;2022-08-19T09:07:37;22.80;99.90
59041;DHT22;44825;53.200;6.448;2022-08-19T09:10:11;22.80;99.90
59041;DHT22;44825;53.200;6.448;2022-08-19T09:12:47;23.00;99.90
59041;DHT22;44825;53.200;6.448;2022-08-19T09:15:29;23.10;99.90
59041;DHT22;44825;53.200;6.448;2022-08-19T09:18:00;23.30;99.90
59041;DHT22;44825;53.200;6.448;2022-08-19T09:20:30;23.40;99.90
59041;DHT22;44825;53.200;6.448;2022-08-19T09:22:58;23.50;99.90
59041;DHT22;44825;53.200;6.448;2022-08-19T09:25:25;23.60;99.90
59041;DHT22;44825;53.200;6.448;2022-08-19T09:27:54;23.70;99.90
59041;DHT22;44825;53.200;6.448;2022-08-19T09:30:25;23.70;99.90
59041;DHT22;44825;53.200;6.448;2022-08-19T09:32:54;23.90;99.90
59041;DHT22;44825;53.200;6.448;2022-08-19T09:35:23;24.00;99.90
59041;DHT22;44825;53.200;6.448;2022-08-19T09:37:53;24.10;99.90
59041;DHT22;44825;53.200;6.448;2022-08-19T09:40:20;24.20;99.90
59041;DHT22;44825;53.200;6.448;2022-08-19T09:42:47;24.30;99.70
59041;DHT22;44825;53.200;6.448;2022-08-19T09:45:17;24.40;99.30
59041;DHT22;44825;53.200;6.448;2022-08-19T09:47:47;24.50;99.20
59041;DHT22;44825;53.200;6.448;2022-08-19T09:50:14;24.50;98.90
59041;DHT22;44825;53.200;6.448;2022-08-19T09:52:44;24.60;99.00
59041;DHT22;44825;53.200;6.448;2022-08-19T09:55:13;24.70;98.60
59041;DHT22;44825;53.200;6.448;2022-08-19T09:57:41;24.70;98.60
59041;DHT22;44825;53.200;6.448;2022-08-19T10:00:10;24.80;98.40
59041;DHT22;44825;53.200;6.448;2022-08-19T10:02:37;24.90;98.10
59041;DHT22;44825;53.200;6.448;2022-08-19T10:05:05;24.90;97.90
59041;DHT22;44825;53.200;6.448;2022-08-19T10:07:50;24.90;97.60
59041;DHT22;44825;53.200;6.448;2022-08-19T10:10:19;25.00;98.00
59041;DHT22;44825;53.200;6.448;2022-08-19T10:12:46;25.00;98.10
59041;DHT22;44825;53.200;6.448;2022-08-19T10:15:14;25.10;97.70
59041;DHT22;44825;53.200;6.448;2022-08-19T10:17:42;25.20;97.60
59041;DHT22;44825;53.200;6.448;2022-08-19T10:20:10;25.30;97.70
59041;DHT22;44825;53.200;6.448;2022-08-19T10:22:37;25.30;97.40
59041;DHT22;44825;53.200;6.448;2022-08-19T10:25:06;25.40;97.10
59041;DHT22;44825;53.200;6.448;2022-08-19T10:27:35;25.40;97.10
59041;DHT22;44825;53.200;6.448;2022-08-19T10:30:03;25.50;96.80
59041;DHT22;44825;53.200;6.448;2022-08-19T10:32:31;25.60;96.80
59041;DHT22;44825;53.200;6.448;2022-08-19T10:34:58;25.70;96.90
59041;DHT22;44825;53.200;6.448;2022-08-19T10:37:25;25.70;96.40
59041;DHT22;44825;53.200;6.448;2022-08-19T10:39:52;25.70;96.40
59041;DHT22;44825;53.200;6.448;2022-08-19T10:42:20;25.80;96.50
59041;DHT22;44825;53.200;6.448;2022-08-19T10:44:48;25.80;95.70
59041;DHT22;44825;53.200;6.448;2022-08-19T10:47:16;25.80;95.60
59041;DHT22;44825;53.200;6.448;2022-08-19T10:49:43;25.80;95.70
59041;DHT22;44825;53.200;6.448;2022-08-19T10:52:28;25.80;96.40
59041;DHT22;44825;53.200;6.448;2022-08-19T10:55:01;25.90;96.20
59041;DHT22;44825;53.200;6.448;2022-08-19T10:57:46;25.90;96.20
59041;DHT22;44825;53.200;6.448;2022-08-19T11:00:15;26.00;96.00
59041;DHT22;44825;53.200;6.448;2022-08-19T11:02:43;25.90;95.50
59041;DHT22;44825;53.200;6.448;2022-08-19T11:05:10;25.70;95.70
59041;DHT22;44825;53.200;6.448;2022-08-19T11:07:38;25.70;96.20
59041;DHT22;44825;53.200;6.448;2022-08-19T11:10:06;25.80;96.40
59041;DHT22;44825;53.200;6.448;2022-08-19T11:12:36;25.80;96.50
59041;DHT22;44825;53.200;6.448;2022-08-19T11:15:06;25.80;96.70
59041;DHT22;44825;53.200;6.448;2022-08-19T11:17:38;25.90;96.20
59041;DHT22;44825;53.200;6.448;2022-08-19T11:20:10;26.10;95.30
59041;DHT22;44825;53.200;6.448;2022-08-19T11:22:38;26.20;95.10
59041;DHT22;44825;53.200;6.448;2022-08-19T11:25:07;26.20;95.50
59041;DHT22;44825;53.200;6.448;2022-08-19T11:27:38;26.20;95.60
59041;DHT22;44825;53.200;6.448;2022-08-19T11:30:09;26.10;95.70
59041;DHT22;44825;53.200;6.448;2022-08-19T11:32:38;25.90;95.50
59041;DHT22;44825;53.200;6.448;2022-08-19T11:35:06;25.80;95.60
59041;DHT22;44825;53.200;6.448;2022-08-19T11:37:34;25.60;95.80
59041;DHT22;44825;53.200;6.448;2022-08-19T11:40:05;25.50;96.10
59041;DHT22;44825;53.200;6.448;2022-08-19T11:42:33;25.40;95.80
59041;DHT22;44825;53.200;6.448;2022-08-19T11:45:17;25.20;95.80
59041;DHT22;44825;53.200;6.448;2022-08-19T11:47:46;25.10;95.90
59041;DHT22;44825;53.200;6.448;2022-08-19T11:50:14;25.00;95.90
59041;DHT22;44825;53.200;6.448;2022-08-19T11:52:42;25.10;96.70
59041;DHT22;44825;53.200;6.448;2022-08-19T11:55:11;25.10;96.20
59041;DHT22;44825;53.200;6.448;2022-08-19T11:57:39;25.10;96.10
59041;DHT22;44825;53.200;6.448;2022-08-19T12:00:07;25.00;95.90
59041;DHT22;44825;53.200;6.448;2022-08-19T12:02:36;25.00;95.90
59041;DHT22;44825;53.200;6.448;2022-08-19T12:05:06;24.90;95.90
59041;DHT22;44825;53.200;6.448;2022-08-19T12:07:34;24.80;96.30
59041;DHT22;44825;53.200;6.448;2022-08-19T12:10:02;24.80;96.30
59041;DHT22;44825;53.200;6.448;2022-08-19T12:12:29;24.70;96.10
59041;DHT22;44825;53.200;6.448;2022-08-19T12:14:56;24.70;96.30
59041;DHT22;44825;53.200;6.448;2022-08-19T12:17:24;24.70;96.40
59041;DHT22;44825;53.200;6.448;2022-08-19T12:19:52;24.70;96.40
59041;DHT22;44825;53.200;6.448;2022-08-19T12:22:21;24.80;96.30
59041;DHT22;44825;53.200;6.448;2022-08-19T12:24:48;24.80;96.10
59041;DHT22;44825;53.200;6.448;2022-08-19T12:27:16;24.70;96.70
59041;DHT22;44825;53.200;6.448;2022-08-19T12:29:44;24.80;96.10
59041;DHT22;44825;53.200;6.448;2022-08-19T12:32:11;24.90;96.20
59041;DHT22;44825;53.200;6.448;2022-08-19T12:34:39;24.80;95.80
59041;DHT22;44825;53.200;6.448;2022-08-19T12:37:06;24.80;96.10
59041;DHT22;44825;53.200;6.448;2022-08-19T12:39:37;24.80;95.90
59041;DHT22;44825;53.200;6.448;2022-08-19T12:42:05;24.70;95.90
59041;DHT22;44825;53.200;6.448;2022-08-19T12:44:34;24.70;96.30
59041;DHT22;44825;53.200;6.448;2022-08-19T12:47:02;24.70;96.50
59041;DHT22;44825;53.200;6.448;2022-08-19T12:49:31;24.60;96.80
59041;DHT22;44825;53.200;6.448;2022-08-19T12:51:59;24.60;97.00
59041;DHT22;44825;53.200;6.448;2022-08-19T12:54:27;24.50;97.10
59041;DHT22;44825;53.200;6.448;2022-08-19T12:56:58;24.40;97.20
59041;DHT22;44825;53.200;6.448;2022-08-19T12:59:26;24.40;97.30
59041;DHT22;44825;53.200;6.448;2022-08-19T13:01:53;24.40;97.80
59041;DHT22;44825;53.200;6.448;2022-08-19T13:04:20;24.30;97.80
59041;DHT22;44825;53.200;6.448;2022-08-19T13:06:48;24.40;98.00
59041;DHT22;44825;53.200;6.448;2022-08-19T13:09:15;24.40;98.00
59041;DHT22;44825;53.200;6.448;2022-08-19T13:11:42;24.60;98.10
59041;DHT22;44825;53.200;6.448;2022-08-19T13:14:12;24.70;98.10
59041;DHT22;44825;53.200;6.448;2022-08-19T13:16:39;24.70;97.90
59041;DHT22;44825;53.200;6.448;2022-08-19T13:19:07;24.80;97.70
59041;DHT22;44825;53.200;6.448;2022-08-19T13:21:34;24.70;98.10
59041;DHT22;44825;53.200;6.448;2022-08-19T13:24:02;24.70;98.30
59041;DHT22;44825;53.200;6.448;2022-08-19T13:26:30;24.70;98.10
59041;DHT22;44825;53.200;6.448;2022-08-19T13:28:57;24.60;98.10
59041;DHT22;44825;53.200;6.448;2022-08-19T13:31:43;24.60;98.30
59041;DHT22;44825;53.200;6.448;2022-08-19T13:34:31;24.40;98.10
59041;DHT22;44825;53.200;6.448;2022-08-19T13:37:00;24.30;98.40
59041;DHT22;44825;53.200;6.448;2022-08-19T13:39:29;24.20;98.30
59041;DHT22;44825;53.200;6.448;2022-08-19T13:41:56;24.20;98.40
59041;DHT22;44825;53.200;6.448;2022-08-19T13:44:26;24.10;98.50
59041;DHT22;44825;53.200;6.448;2022-08-19T13:47:00;24.00;98.30
59041;DHT22;44825;53.200;6.448;2022-08-19T13:49:33;23.90;98.30
59041;DHT22;44825;53.200;6.448;2022-08-19T13:52:02;23.90;98.30
59041;DHT22;44825;53.200;6.448;2022-08-19T13:54:30;23.80;98.70
59041;DHT22;44825;53.200;6.448;2022-08-19T13:56:57;23.70;98.80
59041;DHT22;44825;53.200;6.448;2022-08-19T13:59:24;23.70;98.90
59041;DHT22;44825;53.200;6.448;2022-08-19T14:01:52;23.60;99.00
59041;DHT22;44825;53.200;6.448;2022-08-19T14:04:20;23.60;99.30
59041;DHT22;44825;53.200;6.448;2022-08-19T14:06:48;23.50;99.40
59041;DHT22;44825;53.200;6.448;2022-08-19T14:09:15;23.50;99.70
59041;DHT22;44825;53.200;6.448;2022-08-19T14:11:42;23.50;99.90
59041;DHT22;44825;53.200;6.448;2022-08-19T14:14:11;23.50;99.90
59041;DHT22;44825;53.200;6.448;2022-08-19T14:16:38;23.50;99.90
59041;DHT22;44825;53.200;6.448;2022-08-19T14:19:06;23.50;99.90
59041;DHT22;44825;53.200;6.448;2022-08-19T14:21:35;23.50;99.90
59041;DHT22;44825;53.200;6.448;2022-08-19T14:24:02;23.50;99.90
59041;DHT22;44825;53.200;6.448;2022-08-19T14:26:30;23.50;99.90
59041;DHT22;44825;53.200;6.448;2022-08-19T14:28:57;23.60;99.90
59041;DHT22;44825;53.200;6.448;2022-08-19T14:31:25;23.60;99.90
59041;DHT22;44825;53.200;6.448;2022-08-19T14:33:52;23.60;99.90
59041;DHT22;44825;53.200;6.448;2022-08-19T14:36:20;23.60;99.90
59041;DHT22;44825;53.200;6.448;2022-08-19T14:38:49;23.60;99.90
59041;DHT22;44825;53.200;6.448;2022-08-19T14:41:18;23.70;99.90
59041;DHT22;44825;53.200;6.448;2022-08-19T14:43:48;23.60;99.90
59041;DHT22;44825;53.200;6.448;2022-08-19T14:46:19;23.70;99.90
59041;DHT22;44825;53.200;6.448;2022-08-19T14:48:47;23.70;99.90
59041;DHT22;44825;53.200;6.448;2022-08-19T14:51:15;23.70;99.90
59041;DHT22;44825;53.200;6.448;2022-08-19T14:53:42;23.70;99.90
59041;DHT22;44825;53.200;6.448;2022-08-19T14:56:14;23.70;99.90
59041;DHT22;44825;53.200;6.448;2022-08-19T14:58:42;23.70;99.90
59041;DHT22;44825;53.200;6.448;2022-08-19T15:01:11;23.70;99.90
59041;DHT22;44825;53.200;6.448;2022-08-19T15:03:39;23.70;99.90
59041;DHT22;44825;53.200;6.448;2022-08-19T15:06:07;23.80;99.90
59041;DHT22;44825;53.200;6.448;2022-08-19T15:08:36;23.90;99.90
59041;DHT22;44825;53.200;6.448;2022-08-19T15:11:08;23.90;99.90
59041;DHT22;44825;53.200;6.448;2022-08-19T15:13:38;23.90;99.90
59041;DHT22;44825;53.200;6.448;2022-08-19T15:16:06;24.00;99.90
59041;DHT22;44825;53.200;6.448;2022-08-19T15:18:33;24.00;99.90
59041;DHT22;44825;53.200;6.448;2022-08-19T15:21:01;24.00;99.70
59041;DHT22;44825;53.200;6.448;2022-08-19T15:23:29;24.00;99.40
59041;DHT22;44825;53.200;6.448;2022-08-19T15:25:57;24.00;99.30
59041;DHT22;44825;53.200;6.448;2022-08-19T15:28:25;24.00;99.40
59041;DHT22;44825;53.200;6.448;2022-08-19T15:30:54;24.00;99.50
59041;DHT22;44825;53.200;6.448;2022-08-19T15:33:21;23.90;99.80
59041;DHT22;44825;53.200;6.448;2022-08-19T15:35:49;23.90;99.90
59041;DHT22;44825;53.200;6.448;2022-08-19T15:38:17;23.90;99.90
59041;DHT22;44825;53.200;6.448;2022-08-19T15:40:48;23.90;99.90
59041;DHT22;44825;53.200;6.448;2022-08-19T15:43:16;23.90;99.90